sensor_id;sensor_type;location;lat;lon;timestamp;pressure;altitude;pressure_sealevel;temperature;humidity
38022;BME280;23832;43.216;27.946;2023-03-14T00:01:10;101329.59;;;10.55;55.75
38022;BME280;23832;43.216;27.946;2023-03-14T00:03:13;101320.50;;;10.49;55.55
38022;BME280;23832;43.216;27.946;2023-03-14T00:05:15;101355.97;;;10.55;55.73
38022;BME280;23832;43.216;27.946;2023-03-14T00:07:18;101312.53;;;10.41;55.93
38022;BME280;23832;43.216;27.946;2023-03-14T00:09:20;101305.72;;;10.31;56.61
38022;BME280;23832;43.216;27.946;2023-03-14T00:11:22;101313.66;;;10.39;55.94
38022;BME280;23832;43.216;27.946;2023-03-14T00:13:24;101312.75;;;10.48;55.93
38022;BME280;23832;43.216;27.946;2023-03-14T00:15:26;101301.03;;;10.42;55.56
38022;BME280;23832;43.216;27.946;2023-03-14T00:17:28;101304.16;;;10.46;55.87
38022;BME280;23832;43.216;27.946;2023-03-14T00:19:30;101301.69;;;10.44;55.95
38022;BME280;23832;43.216;27.946;2023-03-14T00:21:35;101300.88;;;10.44;55.74
38022;BME280;23832;43.216;27.946;2023-03-14T00:23:40;101293.34;;;10.31;56.01
38022;BME280;23832;43.216;27.946;2023-03-14T00:25:42;101299.34;;;10.41;55.87
38022;BME280;23832;43.216;27.946;2023-03-14T00:27:44;101294.59;;;10.45;55.54
38022;BME280;23832;43.216;27.946;2023-03-14T00:29:46;101293.13;;;10.50;55.23
38022;BME280;23832;43.216;27.946;2023-03-14T00:31:48;101291.09;;;10.36;55.86
38022;BME280;23832;43.216;27.946;2023-03-14T00:33:52;101285.06;;;10.44;55.46
38022;BME280;23832;43.216;27.946;2023-03-14T00:35:55;101280.25;;;10.21;56.48
38022;BME280;23832;43.216;27.946;2023-03-14T00:37:58;101270.47;;;10.32;55.92
38022;BME280;23832;43.216;27.946;2023-03-14T00:40:01;101269.78;;;10.30;55.98
38022;BME280;23832;43.216;27.946;2023-03-14T00:42:06;101263.53;;;10.31;56.05
38022;BME280;23832;43.216;27.946;2023-03-14T00:44:08;101262.03;;;10.54;55.42
38022;BME280;23832;43.216;27.946;2023-03-14T00:46:11;101256.66;;;10.38;55.60
38022;BME280;23832;43.216;27.946;2023-03-14T00:48:14;101250.41;;;10.39;55.43
38022;BME280;23832;43.216;27.946;2023-03-14T00:50:16;101250.34;;;10.57;55.27
38022;BME280;23832;43.216;27.946;2023-03-14T00:52:17;101251.75;;;10.43;55.02
38022;BME280;23832;43.216;27.946;2023-03-14T00:54:20;101247.44;;;10.42;55.01
38022;BME280;23832;43.216;27.946;2023-03-14T00:56:23;101251.28;;;10.47;55.28
38022;BME280;23832;43.216;27.946;2023-03-14T00:58:25;101239.75;;;10.48;54.68
38022;BME280;23832;43.216;27.946;2023-03-14T01:00:27;101241.47;;;10.32;55.44
38022;BME280;23832;43.216;27.946;2023-03-14T01:02:29;101249.31;;;10.23;55.59
38022;BME280;23832;43.216;27.946;2023-03-14T01:04:30;101238.94;;;10.22;56.00
38022;BME280;23832;43.216;27.946;2023-03-14T01:06:33;101239.31;;;10.27;55.79
38022;BME280;23832;43.216;27.946;2023-03-14T01:08:35;101234.78;;;10.19;55.92
38022;BME280;23832;43.216;27.946;2023-03-14T01:10:38;101227.22;;;10.16;56.18
38022;BME280;23832;43.216;27.946;2023-03-14T01:12:41;101229.53;;;10.19;56.35
38022;BME280;23832;43.216;27.946;2023-03-14T01:14:44;101221.94;;;10.16;56.55
38022;BME280;23832;43.216;27.946;2023-03-14T01:16:46;101228.03;;;10.17;56.85
38022;BME280;23832;43.216;27.946;2023-03-14T01:18:48;101233.75;;;10.12;57.07
38022;BME280;23832;43.216;27.946;2023-03-14T01:20:50;101227.53;;;9.95;58.26
38022;BME280;23832;43.216;27.946;2023-03-14T01:22:52;101225.44;;;9.99;58.42
38022;BME280;23832;43.216;27.946;2023-03-14T01:24:55;101228.13;;;10.07;58.12
38022;BME280;23832;43.216;27.946;2023-03-14T01:26:56;101226.31;;;10.08;57.82
38022;BME280;23832;43.216;27.946;2023-03-14T01:29:00;101228.47;;;10.12;57.63
38022;BME280;23832;43.216;27.946;2023-03-14T01:31:04;101221.72;;;10.10;57.92
38022;BME280;23832;43.216;27.946;2023-03-14T01:33:06;101225.22;;;10.18;57.32
38022;BME280;23832;43.216;27.946;2023-03-14T01:35:08;101224.09;;;10.21;57.38
38022;BME280;23832;43.216;27.946;2023-03-14T01:37:10;101216.50;;;10.18;57.83
38022;BME280;23832;43.216;27.946;2023-03-14T01:39:12;101218.94;;;10.11;58.06
38022;BME280;23832;43.216;27.946;2023-03-14T01:41:16;101216.91;;;10.05;57.96
38022;BME280;23832;43.216;27.946;2023-03-14T01:43:19;101226.22;;;10.17;58.04
38022;BME280;23832;43.216;27.946;2023-03-14T01:46:11;101226.06;;;10.19;57.67
38022;BME280;23832;43.216;27.946;2023-03-14T01:48:16;101231.63;;;10.34;57.53
38022;BME280;23832;43.216;27.946;2023-03-14T01:50:18;101204.25;;;10.09;57.43
38022;BME280;23832;43.216;27.946;2023-03-14T01:52:22;101236.97;;;10.24;56.85
38022;BME280;23832;43.216;27.946;2023-03-14T01:54:28;101232.31;;;10.18;57.04
38022;BME280;23832;43.216;27.946;2023-03-14T01:56:33;101241.81;;;10.11;57.68
38022;BME280;23832;43.216;27.946;2023-03-14T01:58:37;101223.41;;;9.93;58.41
38022;BME280;23832;43.216;27.946;2023-03-14T02:00:40;101229.00;;;9.90;58.90
38022;BME280;23832;43.216;27.946;2023-03-14T02:02:46;101231.78;;;9.88;59.05
38022;BME280;23832;43.216;27.946;2023-03-14T02:04:49;101229.94;;;9.81;59.07
38022;BME280;23832;43.216;27.946;2023-03-14T02:06:55;101226.75;;;9.77;59.77
38022;BME280;23832;43.216;27.946;2023-03-14T02:09:00;101229.94;;;9.63;60.79
38022;BME280;23832;43.216;27.946;2023-03-14T02:11:02;101235.66;;;9.58;61.21
38022;BME280;23832;43.216;27.946;2023-03-14T02:13:05;101232.59;;;9.45;62.54
38022;BME280;23832;43.216;27.946;2023-03-14T02:15:08;101218.59;;;9.45;63.03
38022;BME280;23832;43.216;27.946;2023-03-14T02:17:10;101213.84;;;9.66;61.31
38022;BME280;23832;43.216;27.946;2023-03-14T02:19:17;101210.19;;;9.85;60.47
38022;BME280;23832;43.216;27.946;2023-03-14T02:21:34;101213.56;;;9.95;60.16
38022;BME280;23832;43.216;27.946;2023-03-14T02:23:45;101225.91;;;9.94;60.82
38022;BME280;23832;43.216;27.946;2023-03-14T02:25:54;101228.81;;;10.09;59.81
38022;BME280;23832;43.216;27.946;2023-03-14T02:28:00;101228.81;;;10.09;59.52
38022;BME280;23832;43.216;27.946;2023-03-14T02:30:04;101227.16;;;10.08;59.08
38022;BME280;23832;43.216;27.946;2023-03-14T02:32:08;101229.28;;;9.87;60.38
38022;BME280;23832;43.216;27.946;2023-03-14T02:34:10;101230.34;;;9.94;59.52
38022;BME280;23832;43.216;27.946;2023-03-14T02:36:15;101241.78;;;9.85;60.50
38022;BME280;23832;43.216;27.946;2023-03-14T02:38:22;101238.41;;;9.92;60.85
38022;BME280;23832;43.216;27.946;2023-03-14T02:40:26;101239.22;;;9.93;60.96
38022;BME280;23832;43.216;27.946;2023-03-14T02:42:28;101243.25;;;10.05;59.96
38022;BME280;23832;43.216;27.946;2023-03-14T02:44:32;101242.03;;;9.91;60.84
38022;BME280;23832;43.216;27.946;2023-03-14T02:46:35;101249.34;;;9.80;61.47
38022;BME280;23832;43.216;27.946;2023-03-14T02:48:40;101244.06;;;9.80;60.58
38022;BME280;23832;43.216;27.946;2023-03-14T02:50:44;101253.03;;;9.69;61.67
38022;BME280;23832;43.216;27.946;2023-03-14T02:52:47;101241.22;;;9.73;61.02
38022;BME280;23832;43.216;27.946;2023-03-14T02:54:49;101247.66;;;9.79;60.43
38022;BME280;23832;43.216;27.946;2023-03-14T02:56:51;101248.28;;;9.73;61.12
38022;BME280;23832;43.216;27.946;2023-03-14T02:58:53;101244.59;;;9.65;61.75
38022;BME280;23832;43.216;27.946;2023-03-14T03:00:56;101241.47;;;9.44;63.35
38022;BME280;23832;43.216;27.946;2023-03-14T03:02:58;101256.63;;;9.50;63.07
38022;BME280;23832;43.216;27.946;2023-03-14T03:05:01;101248.31;;;9.37;64.24
38022;BME280;23832;43.216;27.946;2023-03-14T03:07:04;101252.50;;;9.48;63.21
38022;BME280;23832;43.216;27.946;2023-03-14T03:09:06;101249.56;;;9.33;64.89
38022;BME280;23832;43.216;27.946;2023-03-14T03:11:08;101241.81;;;9.31;65.30
38022;BME280;23832;43.216;27.946;2023-03-14T03:13:10;101244.75;;;9.10;67.17
38022;BME280;23832;43.216;27.946;2023-03-14T03:15:12;101240.69;;;9.16;67.10
38022;BME280;23832;43.216;27.946;2023-03-14T03:17:15;101237.22;;;9.33;65.18
38022;BME280;23832;43.216;27.946;2023-03-14T03:19:17;101234.53;;;9.25;66.03
38022;BME280;23832;43.216;27.946;2023-03-14T03:21:19;101230.94;;;9.44;64.05
38022;BME280;23832;43.216;27.946;2023-03-14T03:23:23;101228.16;;;9.28;65.80
38022;BME280;23832;43.216;27.946;2023-03-14T03:25:26;101218.72;;;9.25;66.64
38022;BME280;23832;43.216;27.946;2023-03-14T03:27:29;101223.72;;;9.28;67.07
38022;BME280;23832;43.216;27.946;2023-03-14T03:29:31;101215.16;;;9.44;66.68
38022;BME280;23832;43.216;27.946;2023-03-14T03:31:36;101222.03;;;9.81;64.51
38022;BME280;23832;43.216;27.946;2023-03-14T03:33:40;101224.75;;;9.71;63.99
38022;BME280;23832;43.216;27.946;2023-03-14T03:35:43;101218.44;;;9.64;64.30
38022;BME280;23832;43.216;27.946;2023-03-14T03:37:45;101225.69;;;9.44;65.52
38022;BME280;23832;43.216;27.946;2023-03-14T03:39:49;101206.78;;;9.31;66.14
38022;BME280;23832;43.216;27.946;2023-03-14T03:41:51;101215.28;;;9.25;67.25
38022;BME280;23832;43.216;27.946;2023-03-14T03:43:53;101206.13;;;9.11;68.26
38022;BME280;23832;43.216;27.946;2023-03-14T03:45:55;101202.94;;;9.07;68.48
38022;BME280;23832;43.216;27.946;2023-03-14T03:47:57;101205.53;;;9.17;69.19
38022;BME280;23832;43.216;27.946;2023-03-14T03:50:02;101190.25;;;9.21;67.17
38022;BME280;23832;43.216;27.946;2023-03-14T03:52:04;101209.34;;;9.41;66.50
38022;BME280;23832;43.216;27.946;2023-03-14T03:54:06;101208.53;;;9.40;67.14
38022;BME280;23832;43.216;27.946;2023-03-14T03:56:09;101210.91;;;9.51;65.79
38022;BME280;23832;43.216;27.946;2023-03-14T03:58:11;101210.00;;;9.43;66.44
38022;BME280;23832;43.216;27.946;2023-03-14T04:00:13;101206.94;;;9.47;65.74
38022;BME280;23832;43.216;27.946;2023-03-14T04:02:15;101212.53;;;9.44;65.93
38022;BME280;23832;43.216;27.946;2023-03-14T04:04:17;101209.72;;;9.46;66.17
38022;BME280;23832;43.216;27.946;2023-03-14T04:06:21;101214.75;;;9.21;68.60
38022;BME280;23832;43.216;27.946;2023-03-14T04:08:22;101215.00;;;9.10;69.49
38022;BME280;23832;43.216;27.946;2023-03-14T04:10:27;101210.47;;;9.02;71.17
38022;BME280;23832;43.216;27.946;2023-03-14T04:12:29;101208.28;;;9.33;69.67
38022;BME280;23832;43.216;27.946;2023-03-14T04:14:31;101211.75;;;9.34;68.62
38022;BME280;23832;43.216;27.946;2023-03-14T04:16:33;101212.66;;;9.43;67.98
38022;BME280;23832;43.216;27.946;2023-03-14T04:18:36;101204.16;;;9.49;67.38
38022;BME280;23832;43.216;27.946;2023-03-14T04:20:38;101200.44;;;9.59;67.08
38022;BME280;23832;43.216;27.946;2023-03-14T04:22:41;101202.25;;;9.59;66.95
38022;BME280;23832;43.216;27.946;2023-03-14T04:24:43;101205.41;;;9.80;66.67
38022;BME280;23832;43.216;27.946;2023-03-14T04:26:45;101204.25;;;9.83;65.93
38022;BME280;23832;43.216;27.946;2023-03-14T04:28:48;101202.44;;;9.83;66.05
38022;BME280;23832;43.216;27.946;2023-03-14T04:30:50;101211.56;;;9.89;65.53
38022;BME280;23832;43.216;27.946;2023-03-14T04:32:52;101202.44;;;9.83;66.80
38022;BME280;23832;43.216;27.946;2023-03-14T04:34:54;101200.53;;;9.93;65.55
38022;BME280;23832;43.216;27.946;2023-03-14T04:36:56;101199.16;;;10.07;64.80
38022;BME280;23832;43.216;27.946;2023-03-14T04:38:59;101195.06;;;10.13;64.18
38022;BME280;23832;43.216;27.946;2023-03-14T04:41:01;101193.53;;;10.02;65.65
38022;BME280;23832;43.216;27.946;2023-03-14T04:43:04;101200.81;;;10.08;64.97
38022;BME280;23832;43.216;27.946;2023-03-14T04:45:07;101205.03;;;10.01;65.63
38022;BME280;23832;43.216;27.946;2023-03-14T04:47:09;101205.53;;;10.05;65.71
38022;BME280;23832;43.216;27.946;2023-03-14T04:49:11;101209.47;;;10.01;66.05
38022;BME280;23832;43.216;27.946;2023-03-14T04:51:13;101212.13;;;10.01;66.52
38022;BME280;23832;43.216;27.946;2023-03-14T04:53:16;101200.44;;;10.03;65.29
38022;BME280;23832;43.216;27.946;2023-03-14T04:55:19;101209.38;;;10.10;64.72
38022;BME280;23832;43.216;27.946;2023-03-14T04:57:22;101187.59;;;10.00;64.84
38022;BME280;23832;43.216;27.946;2023-03-14T04:59:24;101200.84;;;10.16;64.09
38022;BME280;23832;43.216;27.946;2023-03-14T05:01:26;101195.66;;;10.25;63.21
38022;BME280;23832;43.216;27.946;2023-03-14T05:03:28;101203.69;;;10.23;64.09
38022;BME280;23832;43.216;27.946;2023-03-14T05:05:30;101186.81;;;10.34;63.65
38022;BME280;23832;43.216;27.946;2023-03-14T05:07:32;101188.50;;;10.43;63.90
38022;BME280;23832;43.216;27.946;2023-03-14T05:09:34;101186.91;;;10.58;63.34
38022;BME280;23832;43.216;27.946;2023-03-14T05:11:38;101183.03;;;10.78;62.41
38022;BME280;23832;43.216;27.946;2023-03-14T05:13:40;101179.59;;;11.02;61.63
38022;BME280;23832;43.216;27.946;2023-03-14T05:15:41;101193.31;;;11.30;60.47
38022;BME280;23832;43.216;27.946;2023-03-14T05:17:44;101217.09;;;11.47;59.65
38022;BME280;23832;43.216;27.946;2023-03-14T05:19:46;101206.84;;;11.68;58.94
38022;BME280;23832;43.216;27.946;2023-03-14T05:21:48;101204.88;;;12.03;58.08
38022;BME280;23832;43.216;27.946;2023-03-14T05:23:50;101207.81;;;12.24;57.34
38022;BME280;23832;43.216;27.946;2023-03-14T05:25:53;101207.69;;;12.48;56.16
38022;BME280;23832;43.216;27.946;2023-03-14T05:27:56;101213.06;;;12.71;55.56
38022;BME280;23832;43.216;27.946;2023-03-14T05:29:58;101207.44;;;13.05;54.36
38022;BME280;23832;43.216;27.946;2023-03-14T05:32:00;101212.59;;;13.53;52.93
38022;BME280;23832;43.216;27.946;2023-03-14T05:34:02;101210.41;;;13.94;51.81
38022;BME280;23832;43.216;27.946;2023-03-14T05:36:05;101209.50;;;14.31;50.64
38022;BME280;23832;43.216;27.946;2023-03-14T05:38:08;101203.38;;;14.60;49.76
38022;BME280;23832;43.216;27.946;2023-03-14T05:40:11;101207.38;;;14.86;49.11
38022;BME280;23832;43.216;27.946;2023-03-14T05:42:13;101207.50;;;14.99;48.97
38022;BME280;23832;43.216;27.946;2023-03-14T05:44:17;101204.34;;;15.53;47.95
38022;BME280;23832;43.216;27.946;2023-03-14T05:46:19;101211.38;;;16.10;46.83
38022;BME280;23832;43.216;27.946;2023-03-14T05:48:21;101213.34;;;16.70;45.74
38022;BME280;23832;43.216;27.946;2023-03-14T05:50:23;101214.50;;;17.22;44.54
38022;BME280;23832;43.216;27.946;2023-03-14T05:52:25;101208.22;;;17.90;42.91
38022;BME280;23832;43.216;27.946;2023-03-14T05:54:27;101205.47;;;18.23;42.22
38022;BME280;23832;43.216;27.946;2023-03-14T05:56:29;101208.72;;;18.44;41.76
38022;BME280;23832;43.216;27.946;2023-03-14T05:58:31;101204.97;;;19.04;40.56
38022;BME280;23832;43.216;27.946;2023-03-14T06:00:35;101203.63;;;19.51;39.63
38022;BME280;23832;43.216;27.946;2023-03-14T06:02:37;101201.53;;;19.60;39.16
38022;BME280;23832;43.216;27.946;2023-03-14T06:04:39;101202.81;;;19.75;38.94
38022;BME280;23832;43.216;27.946;2023-03-14T06:06:41;101201.81;;;19.95;38.54
38022;BME280;23832;43.216;27.946;2023-03-14T06:08:43;101205.75;;;20.54;37.43
38022;BME280;23832;43.216;27.946;2023-03-14T06:10:45;101198.16;;;20.69;36.88
38022;BME280;23832;43.216;27.946;2023-03-14T06:12:47;101201.41;;;20.71;36.90
38022;BME280;23832;43.216;27.946;2023-03-14T06:14:49;101209.56;;;20.39;37.35
38022;BME280;23832;43.216;27.946;2023-03-14T06:16:53;101207.41;;;21.15;35.76
38022;BME280;23832;43.216;27.946;2023-03-14T06:18:55;101201.69;;;21.65;35.12
38022;BME280;23832;43.216;27.946;2023-03-14T06:20:57;101210.22;;;21.97;34.89
38022;BME280;23832;43.216;27.946;2023-03-14T06:22:59;101206.25;;;22.23;34.63
38022;BME280;23832;43.216;27.946;2023-03-14T06:25:01;101207.19;;;22.05;34.89
38022;BME280;23832;43.216;27.946;2023-03-14T06:27:05;101206.13;;;22.70;33.84
38022;BME280;23832;43.216;27.946;2023-03-14T06:29:07;101211.25;;;23.11;33.10
38022;BME280;23832;43.216;27.946;2023-03-14T06:31:09;101204.25;;;23.27;33.09
38022;BME280;23832;43.216;27.946;2023-03-14T06:33:13;101203.31;;;23.67;32.25
38022;BME280;23832;43.216;27.946;2023-03-14T06:35:15;101191.56;;;22.94;33.37
38022;BME280;23832;43.216;27.946;2023-03-14T06:37:17;101188.00;;;22.77;33.60
38022;BME280;23832;43.216;27.946;2023-03-14T06:39:19;101200.00;;;22.57;33.66
38022;BME280;23832;43.216;27.946;2023-03-14T06:41:21;101194.84;;;22.96;33.19
38022;BME280;23832;43.216;27.946;2023-03-14T06:43:24;101191.81;;;24.10;31.89
38022;BME280;23832;43.216;27.946;2023-03-14T06:45:26;101192.25;;;24.02;32.36
38022;BME280;23832;43.216;27.946;2023-03-14T06:47:27;101194.72;;;23.87;32.81
38022;BME280;23832;43.216;27.946;2023-03-14T06:49:31;101195.31;;;23.72;32.42
38022;BME280;23832;43.216;27.946;2023-03-14T06:51:33;101179.63;;;23.35;32.75
38022;BME280;23832;43.216;27.946;2023-03-14T06:53:35;101190.72;;;24.50;31.27
38022;BME280;23832;43.216;27.946;2023-03-14T06:55:37;101188.69;;;24.18;31.96
38022;BME280;23832;43.216;27.946;2023-03-14T06:57:39;101186.06;;;24.94;30.57
38022;BME280;23832;43.216;27.946;2023-03-14T06:59:41;101179.28;;;24.38;31.71
38022;BME280;23832;43.216;27.946;2023-03-14T07:01:43;101183.84;;;25.13;30.34
38022;BME280;23832;43.216;27.946;2023-03-14T07:03:45;101175.34;;;24.72;31.01
38022;BME280;23832;43.216;27.946;2023-03-14T07:05:51;101176.94;;;24.07;30.73
38022;BME280;23832;43.216;27.946;2023-03-14T07:08:03;101176.72;;;24.75;30.39
38022;BME280;23832;43.216;27.946;2023-03-14T07:10:06;101165.72;;;25.40;29.94
38022;BME280;23832;43.216;27.946;2023-03-14T07:12:09;101180.13;;;25.88;29.11
38022;BME280;23832;43.216;27.946;2023-03-14T07:14:11;101172.03;;;25.19;29.64
38022;BME280;23832;43.216;27.946;2023-03-14T07:16:13;101176.91;;;24.95;29.99
38022;BME280;23832;43.216;27.946;2023-03-14T07:18:15;101176.31;;;25.15;30.04
38022;BME280;23832;43.216;27.946;2023-03-14T07:20:17;101176.00;;;25.75;29.09
38022;BME280;23832;43.216;27.946;2023-03-14T07:22:20;101166.72;;;25.66;29.21
38022;BME280;23832;43.216;27.946;2023-03-14T07:24:22;101163.72;;;26.05;28.40
38022;BME280;23832;43.216;27.946;2023-03-14T07:26:24;101165.88;;;25.61;28.88
38022;BME280;23832;43.216;27.946;2023-03-14T07:28:26;101170.00;;;26.16;28.73
38022;BME280;23832;43.216;27.946;2023-03-14T07:30:28;101168.81;;;25.96;29.06
38022;BME280;23832;43.216;27.946;2023-03-14T07:32:34;101163.38;;;26.44;27.54
38022;BME280;23832;43.216;27.946;2023-03-14T07:34:37;101163.75;;;25.68;27.83
38022;BME280;23832;43.216;27.946;2023-03-14T07:36:40;101159.09;;;25.21;28.59
38022;BME280;23832;43.216;27.946;2023-03-14T07:38:47;101154.44;;;25.48;28.47
38022;BME280;23832;43.216;27.946;2023-03-14T07:40:58;101114.63;;;26.18;27.99
38022;BME280;23832;43.216;27.946;2023-03-14T07:43:01;101156.47;;;27.19;27.01
38022;BME280;23832;43.216;27.946;2023-03-14T07:45:04;101149.13;;;27.65;26.73
38022;BME280;23832;43.216;27.946;2023-03-14T07:47:06;101154.59;;;27.14;27.47
38022;BME280;23832;43.216;27.946;2023-03-14T07:49:08;101142.38;;;27.53;26.75
38022;BME280;23832;43.216;27.946;2023-03-14T07:51:10;101148.56;;;27.84;26.36
38022;BME280;23832;43.216;27.946;2023-03-14T07:53:13;101146.31;;;26.38;27.44
38022;BME280;23832;43.216;27.946;2023-03-14T07:55:19;101149.06;;;26.43;27.21
38022;BME280;23832;43.216;27.946;2023-03-14T07:57:21;101168.84;;;26.01;28.12
38022;BME280;23832;43.216;27.946;2023-03-14T07:59:24;101153.72;;;26.06;28.31
38022;BME280;23832;43.216;27.946;2023-03-14T08:01:26;101148.38;;;27.14;27.21
38022;BME280;23832;43.216;27.946;2023-03-14T08:03:28;101150.75;;;27.87;26.44
38022;BME280;23832;43.216;27.946;2023-03-14T08:05:30;101133.19;;;27.38;27.08
38022;BME280;23832;43.216;27.946;2023-03-14T08:07:32;101150.47;;;27.63;27.31
38022;BME280;23832;43.216;27.946;2023-03-14T08:09:34;101149.06;;;28.55;26.23
38022;BME280;23832;43.216;27.946;2023-03-14T08:11:37;101142.41;;;29.21;25.09
38022;BME280;23832;43.216;27.946;2023-03-14T08:13:40;101131.38;;;29.89;25.10
38022;BME280;23832;43.216;27.946;2023-03-14T08:15:47;101137.81;;;29.17;24.46
38022;BME280;23832;43.216;27.946;2023-03-14T08:17:49;101128.31;;;30.20;24.47
38022;BME280;23832;43.216;27.946;2023-03-14T08:19:51;101129.66;;;30.22;24.65
38022;BME280;23832;43.216;27.946;2023-03-14T08:21:55;101129.41;;;29.71;24.68
38022;BME280;23832;43.216;27.946;2023-03-14T08:23:57;101124.44;;;30.02;24.61
38022;BME280;23832;43.216;27.946;2023-03-14T08:26:01;101121.16;;;29.57;24.90
38022;BME280;23832;43.216;27.946;2023-03-14T08:28:08;101121.91;;;29.87;24.72
38022;BME280;23832;43.216;27.946;2023-03-14T08:30:11;101117.72;;;30.18;24.23
38022;BME280;23832;43.216;27.946;2023-03-14T08:32:14;101120.97;;;29.96;24.73
38022;BME280;23832;43.216;27.946;2023-03-14T08:34:20;101118.16;;;30.82;23.96
38022;BME280;23832;43.216;27.946;2023-03-14T08:36:23;101117.03;;;31.21;23.15
38022;BME280;23832;43.216;27.946;2023-03-14T08:38:25;101120.84;;;30.49;23.81
38022;BME280;23832;43.216;27.946;2023-03-14T08:40:28;101120.84;;;30.07;24.68
38022;BME280;23832;43.216;27.946;2023-03-14T08:42:33;101103.94;;;31.18;23.57
38022;BME280;23832;43.216;27.946;2023-03-14T08:44:39;101114.63;;;31.33;23.17
38022;BME280;23832;43.216;27.946;2023-03-14T08:46:42;101112.19;;;31.31;23.25
38022;BME280;23832;43.216;27.946;2023-03-14T08:48:45;101103.28;;;31.26;23.74
38022;BME280;23832;43.216;27.946;2023-03-14T08:50:46;101106.88;;;30.75;24.17
38022;BME280;23832;43.216;27.946;2023-03-14T08:52:48;101100.31;;;31.96;22.55
38022;BME280;23832;43.216;27.946;2023-03-14T08:54:50;101101.34;;;32.95;22.40
38022;BME280;23832;43.216;27.946;2023-03-14T08:56:52;101096.78;;;33.13;22.28
38022;BME280;23832;43.216;27.946;2023-03-14T08:58:54;101091.84;;;32.70;22.34
38022;BME280;23832;43.216;27.946;2023-03-14T09:00:58;101092.22;;;33.30;21.90
38022;BME280;23832;43.216;27.946;2023-03-14T09:03:00;101093.56;;;32.43;22.85
38022;BME280;23832;43.216;27.946;2023-03-14T09:05:04;101081.59;;;32.98;22.07
38022;BME280;23832;43.216;27.946;2023-03-14T09:07:07;101074.25;;;32.04;22.72
38022;BME280;23832;43.216;27.946;2023-03-14T09:09:08;101077.19;;;31.94;22.99
38022;BME280;23832;43.216;27.946;2023-03-14T09:11:11;101075.69;;;32.01;23.12
38022;BME280;23832;43.216;27.946;2023-03-14T09:13:13;101078.88;;;32.75;22.33
38022;BME280;23832;43.216;27.946;2023-03-14T09:15:17;101066.38;;;32.02;22.91
38022;BME280;23832;43.216;27.946;2023-03-14T09:17:20;101071.31;;;32.50;22.52
38022;BME280;23832;43.216;27.946;2023-03-14T09:19:22;101064.78;;;33.04;21.83
38022;BME280;23832;43.216;27.946;2023-03-14T09:21:24;101061.69;;;32.16;22.89
38022;BME280;23832;43.216;27.946;2023-03-14T09:23:28;101066.25;;;32.07;22.89
38022;BME280;23832;43.216;27.946;2023-03-14T09:25:32;101063.59;;;32.97;21.88
38022;BME280;23832;43.216;27.946;2023-03-14T09:27:34;101056.81;;;32.86;22.27
38022;BME280;23832;43.216;27.946;2023-03-14T09:29:36;101042.28;;;33.39;21.78
38022;BME280;23832;43.216;27.946;2023-03-14T09:31:38;101053.56;;;30.36;23.65
38022;BME280;23832;43.216;27.946;2023-03-14T09:33:56;101004.31;;;31.17;23.09
38022;BME280;23832;43.216;27.946;2023-03-14T09:35:59;101050.59;;;31.99;22.88
38022;BME280;23832;43.216;27.946;2023-03-14T09:38:01;101051.63;;;32.03;22.57
38022;BME280;23832;43.216;27.946;2023-03-14T09:40:03;101055.03;;;33.52;21.54
38022;BME280;23832;43.216;27.946;2023-03-14T09:42:14;101043.09;;;32.18;22.00
38022;BME280;23832;43.216;27.946;2023-03-14T09:44:21;101044.31;;;32.93;21.74
38022;BME280;23832;43.216;27.946;2023-03-14T09:46:26;101057.59;;;33.48;21.53
38022;BME280;23832;43.216;27.946;2023-03-14T09:48:30;101040.63;;;32.89;21.66
38022;BME280;23832;43.216;27.946;2023-03-14T09:50:37;101046.28;;;31.71;22.36
38022;BME280;23832;43.216;27.946;2023-03-14T09:52:42;101043.19;;;30.90;23.35
38022;BME280;23832;43.216;27.946;2023-03-14T09:54:49;101038.69;;;31.13;23.28
38022;BME280;23832;43.216;27.946;2023-03-14T09:56:52;101043.38;;;32.31;21.97
38022;BME280;23832;43.216;27.946;2023-03-14T09:58:56;101037.31;;;32.56;22.10
38022;BME280;23832;43.216;27.946;2023-03-14T10:01:02;101034.63;;;30.12;23.72
38022;BME280;23832;43.216;27.946;2023-03-14T10:03:20;101056.34;;;32.11;21.99
38022;BME280;23832;43.216;27.946;2023-03-14T10:05:23;101029.75;;;32.31;21.99
38022;BME280;23832;43.216;27.946;2023-03-14T10:07:29;101032.88;;;29.98;23.39
38022;BME280;23832;43.216;27.946;2023-03-14T10:09:35;101019.13;;;32.52;22.31
38022;BME280;23832;43.216;27.946;2023-03-14T10:11:39;101024.47;;;32.57;21.90
38022;BME280;23832;43.216;27.946;2023-03-14T10:14:02;101012.78;;;34.79;20.12
38022;BME280;23832;43.216;27.946;2023-03-14T10:16:06;101021.47;;;33.77;21.14
38022;BME280;23832;43.216;27.946;2023-03-14T10:18:29;101021.59;;;33.15;21.40
38022;BME280;23832;43.216;27.946;2023-03-14T10:20:33;101009.31;;;34.18;20.82
38022;BME280;23832;43.216;27.946;2023-03-14T10:22:37;101009.38;;;32.82;21.45
38022;BME280;23832;43.216;27.946;2023-03-14T10:24:45;101009.53;;;32.54;21.94
38022;BME280;23832;43.216;27.946;2023-03-14T10:26:49;100997.03;;;33.72;20.66
38022;BME280;23832;43.216;27.946;2023-03-14T10:29:02;100997.25;;;32.65;21.51
38022;BME280;23832;43.216;27.946;2023-03-14T10:31:06;100987.81;;;32.80;21.72
38022;BME280;23832;43.216;27.946;2023-03-14T10:33:21;100996.31;;;33.01;21.44
38022;BME280;23832;43.216;27.946;2023-03-14T10:35:24;100994.81;;;32.64;21.70
38022;BME280;23832;43.216;27.946;2023-03-14T10:37:26;100981.28;;;33.21;21.38
38022;BME280;23832;43.216;27.946;2023-03-14T10:39:38;100968.41;;;32.51;21.44